Main page
METAR-TAF:

METAR-TAF

Airports :

Río Amazonas Airport

Shell Mera, Ecuador

latitude: 01-30-19S, longitude: 078-03-46W, elevation: 1056 m

Current weather observation

The report was made 9 hours and 59 minutes ago, at 23:00 UTC
Wind 5 kt from the Northwest
Temperature 19°C
Humidity 94%
Pressure 1017 hPa
Visibility: 5000 m
Few clouds at a height of 1000 ft
Broken clouds at a height of 2600 ft
Overcast at a height of 9000 ft
light rain

METAR: SESM 022300Z 32005KT 5000 -RA FEW010 BKN026 OVC090 19/18 Q1017 RMK A3006

Time: 03:59 (08:59 UTC)


TAF: missing

Weather observations and forecasts of more than 4000 airports (METAR and TAF reports).

The available stations are represented by yellow and red dots on the map.

Hover mouse over dot to see the name of the station.

Then click to see weather observations and forecasts.

To change the map : click on the green buttons with a black cross to zoom in, on the green button with a dash to zoom out, or on the green arrows for adjacent maps.


METAR-TAF: